Time,TemperatureF,DewpointF,PressureIn,WindDirection,WindDirectionDegrees,WindSpeedMPH,WindSpeedGustMPH,Humidity,HourlyPrecipIn,Conditions,Clouds,dailyrainin,SolarRadiationWatts/m^2,SoftwareType,DateUTC
2013-07-15 00:01:00,73.0,71.0,-100.00,ESE,123,0.0,2.0,94,0.00,,,0.00,0.000000,,2013-07-15 04:01:00,
2013-07-15 00:11:00,73.0,71.0,-100.00,ESE,123,0.0,2.0,94,0.00,,,0.00,0.000000,,2013-07-15 04:11:00,
2013-07-15 00:22:00,73.0,71.0,-100.00,ESE,123,0.0,2.0,94,0.00,,,0.00,0.000000,,2013-07-15 04:22:00,
2013-07-15 00:54:00,72.0,71.0,-100.00,ENE,60,0.0,2.0,96,0.00,,,0.00,0.000000,,2013-07-15 04:54:00,
2013-07-15 01:02:00,72.0,71.0,-100.00,ENE,60,0.0,2.0,96,0.00,,,0.00,0.000000,,2013-07-15 05:02:00,
2013-07-15 01:12:00,72.0,71.0,-100.00,ENE,60,0.0,2.0,96,0.00,,,0.00,0.000000,,2013-07-15 05:12:00,
2013-07-15 01:22:00,72.0,71.0,-100.00,ENE,60,0.0,2.0,96,0.00,,,0.00,0.000000,,2013-07-15 05:22:00,
2013-07-15 01:53:00,72.0,71.0,-100.00,East,85,0.0,3.0,96,0.00,,,0.00,0.000000,,2013-07-15 05:53:00,
2013-07-15 02:02:00,72.0,71.0,-100.00,East,85,0.0,3.0,96,0.00,,,0.00,0.000000,,2013-07-15 06:02:00,
2013-07-15 02:12:00,72.0,71.0,-100.00,East,85,0.0,3.0,96,0.00,,,0.00,0.000000,,2013-07-15 06:12:00,
2013-07-15 02:22:00,72.0,71.0,-100.00,East,85,0.0,3.0,96,0.00,,,0.00,0.000000,,2013-07-15 06:22:00,
2013-07-15 02:53:00,73.0,72.0,-100.00,SE,139,0.0,2.0,96,0.00,,,0.00,0.000000,,2013-07-15 06:53:00,
2013-07-15 03:01:00,73.0,72.0,-100.00,SE,139,0.0,2.0,96,0.00,,,0.00,0.000000,,2013-07-15 07:01:00,
2013-07-15 03:11:00,73.0,72.0,-100.00,SE,139,0.0,2.0,96,0.00,,,0.00,0.000000,,2013-07-15 07:11:00,
2013-07-15 03:22:00,73.0,72.0,-100.00,SE,139,0.0,2.0,96,0.00,,,0.00,0.000000,,2013-07-15 07:22:00,
2013-07-15 03:53:00,73.0,72.0,-100.00,NNE,33,0.0,2.0,96,0.00,,,0.00,0.000000,,2013-07-15 07:53:00,
2013-07-15 04:02:00,73.0,72.0,-100.00,NNE,33,0.0,2.0,96,0.00,,,0.00,0.000000,,2013-07-15 08:02:00,
2013-07-15 04:12:00,73.0,72.0,-100.00,NNE,33,0.0,2.0,96,0.00,,,0.00,0.000000,,2013-07-15 08:12:00,
2013-07-15 04:22:00,73.0,72.0,-100.00,NNE,33,0.0,2.0,96,0.00,,,0.00,0.000000,,2013-07-15 08:22:00,
2013-07-15 04:53:00,74.0,72.0,-100.00,SW,215,2.0,2.0,93,0.00,,,0.00,0.000000,,2013-07-15 08:53:00,
2013-07-15 05:02:00,74.0,72.0,-100.00,SW,215,2.0,2.0,93,0.00,,,0.00,0.000000,,2013-07-15 09:02:00,
2013-07-15 05:12:00,74.0,72.0,-100.00,SW,215,2.0,2.0,93,0.00,,,0.00,0.000000,,2013-07-15 09:12:00,
2013-07-15 05:22:00,74.0,72.0,-100.00,SW,215,2.0,2.0,93,0.00,,,0.00,0.000000,,2013-07-15 09:22:00,
2013-07-15 05:52:00,72.0,71.0,-100.00,SSW,206,2.0,3.0,97,0.00,,,0.00,0.000000,,2013-07-15 09:52:00,
2013-07-15 06:02:00,72.0,71.0,-100.00,SSW,206,2.0,3.0,97,0.00,,,0.00,0.000000,,2013-07-15 10:02:00,
2013-07-15 06:11:00,72.0,71.0,-100.00,SSW,206,2.0,3.0,97,0.00,,,0.00,0.000000,,2013-07-15 10:11:00,
2013-07-15 06:22:00,72.0,71.0,-100.00,SSW,206,2.0,3.0,97,0.00,,,0.00,0.000000,,2013-07-15 10:22:00,
2013-07-15 06:53:00,72.0,71.0,-100.00,SSW,192,1.0,3.0,97,0.00,,,0.00,11.000000,,2013-07-15 10:53:00,
2013-07-15 07:02:00,72.0,71.0,-100.00,SSW,192,1.0,3.0,97,0.00,,,0.00,11.000000,,2013-07-15 11:02:00,
2013-07-15 07:11:00,72.0,71.0,-100.00,SSW,192,1.0,3.0,97,0.00,,,0.00,11.000000,,2013-07-15 11:11:00,
2013-07-15 07:22:00,72.0,71.0,-100.00,SSW,192,1.0,3.0,97,0.00,,,0.00,11.000000,,2013-07-15 11:22:00,
2013-07-15 07:52:00,75.0,72.0,-100.00,SW,216,2.0,5.0,89,0.00,,,0.00,63.000000,,2013-07-15 11:52:00,
2013-07-15 08:01:00,75.0,72.0,-100.00,SW,216,2.0,5.0,89,0.00,,,0.00,63.000000,,2013-07-15 12:01:00,
2013-07-15 08:11:00,75.0,72.0,-100.00,SW,216,2.0,5.0,89,0.00,,,0.00,63.000000,,2013-07-15 12:11:00,
2013-07-15 08:22:00,75.0,72.0,-100.00,SW,216,2.0,5.0,89,0.00,,,0.00,63.000000,,2013-07-15 12:22:00,
2013-07-15 08:53:00,78.0,72.0,-100.00,WSW,243,2.0,7.0,83,0.00,,,0.00,164.000000,,2013-07-15 12:53:00,
2013-07-15 09:02:00,78.0,72.0,-100.00,WSW,243,2.0,7.0,83,0.00,,,0.00,164.000000,,2013-07-15 13:02:00,
2013-07-15 09:11:00,78.0,72.0,-100.00,WSW,243,2.0,7.0,83,0.00,,,0.00,164.000000,,2013-07-15 13:11:00,
2013-07-15 09:22:00,78.0,72.0,-100.00,WSW,243,2.0,7.0,83,0.00,,,0.00,164.000000,,2013-07-15 13:22:00,
2013-07-15 09:53:00,83.0,73.0,-100.00,West,269,4.0,9.0,73,0.00,,,0.00,362.000000,,2013-07-15 13:53:00,
2013-07-15 10:02:00,83.0,73.0,-100.00,West,269,4.0,9.0,73,0.00,,,0.00,362.000000,,2013-07-15 14:02:00,
2013-07-15 10:11:00,83.0,73.0,-100.00,West,269,4.0,9.0,73,0.00,,,0.00,362.000000,,2013-07-15 14:11:00,
2013-07-15 10:22:00,83.0,73.0,-100.00,West,269,4.0,9.0,73,0.00,,,0.00,362.000000,,2013-07-15 14:22:00,
2013-07-15 10:25:00,85.0,73.0,-100.00,West,259,6.0,9.0,68,0.00,,,0.00,506.000000,,2013-07-15 14:25:00,
2013-07-15 11:02:00,85.0,73.0,-100.00,West,259,6.0,9.0,68,0.00,,,0.00,506.000000,,2013-07-15 15:02:00,
2013-07-15 11:19:00,85.0,73.0,-100.00,West,259,6.0,9.0,68,0.00,,,0.00,506.000000,,2013-07-15 15:19:00,
2013-07-15 11:54:00,88.0,74.0,-100.00,NNW,342,4.0,8.0,63,0.00,,,0.00,644.000000,,2013-07-15 15:54:00,
2013-07-15 12:08:00,88.0,74.0,-100.00,NNW,342,4.0,8.0,63,0.00,,,0.00,644.000000,,2013-07-15 16:08:00,
2013-07-15 12:15:00,88.0,74.0,-100.00,NNW,342,4.0,8.0,63,0.00,,,0.00,644.000000,,2013-07-15 16:15:00,
2013-07-15 12:24:00,88.0,74.0,-100.00,NNW,342,4.0,8.0,63,0.00,,,0.00,644.000000,,2013-07-15 16:24:00,
2013-07-15 12:53:00,84.0,74.0,-100.00,North,360,4.0,10.0,73,0.00,,,0.00,543.000000,,2013-07-15 16:53:00,
2013-07-15 13:08:00,84.0,74.0,-100.00,North,360,4.0,10.0,73,0.00,,,0.00,543.000000,,2013-07-15 17:08:00,
2013-07-15 13:23:00,84.0,74.0,-100.00,North,360,4.0,10.0,73,0.00,,,0.00,543.000000,,2013-07-15 17:23:00,
2013-07-15 13:25:00,88.0,72.0,-100.00,NNW,347,4.0,10.0,60,0.00,,,0.00,822.000000,,2013-07-15 17:25:00,
2013-07-15 14:08:00,88.0,72.0,-100.00,NNW,347,4.0,10.0,60,0.00,,,0.00,822.000000,,2013-07-15 18:08:00,
2013-07-15 14:18:00,88.0,72.0,-100.00,NNW,347,4.0,10.0,60,0.00,,,0.00,822.000000,,2013-07-15 18:18:00,
2013-07-15 14:59:00,90.0,72.0,-100.00,NNW,334,4.0,10.0,56,0.00,,,0.00,786.000000,,2013-07-15 18:59:00,
2013-07-15 15:05:00,90.0,72.0,-100.00,NNW,334,4.0,10.0,56,0.00,,,0.00,786.000000,,2013-07-15 19:05:00,
2013-07-15 15:12:00,90.0,72.0,-100.00,NNW,334,4.0,10.0,56,0.00,,,0.00,786.000000,,2013-07-15 19:12:00,
2013-07-15 15:24:00,90.0,72.0,-100.00,NNW,334,4.0,10.0,56,0.00,,,0.00,786.000000,,2013-07-15 19:24:00,
2013-07-15 15:25:00,89.0,71.0,-100.00,NW,316,5.0,10.0,55,0.00,,,0.00,726.000000,,2013-07-15 19:25:00,
2013-07-15 15:57:00,89.0,71.0,-100.00,NW,316,5.0,10.0,55,0.00,,,0.00,726.000000,,2013-07-15 19:57:00,
2013-07-15 16:07:00,89.0,71.0,-100.00,NW,316,5.0,10.0,55,0.00,,,0.00,726.000000,,2013-07-15 20:07:00,
2013-07-15 16:18:00,89.0,71.0,-100.00,NW,316,5.0,10.0,55,0.00,,,0.00,726.000000,,2013-07-15 20:18:00,
2013-07-15 17:00:00,89.0,72.0,-100.00,NNE,15,6.0,12.0,58,0.00,,,0.00,694.000000,,2013-07-15 21:00:00,
2013-07-15 17:13:00,89.0,72.0,-100.00,NNE,15,6.0,12.0,58,0.00,,,0.00,694.000000,,2013-07-15 21:13:00,
2013-07-15 17:23:00,89.0,72.0,-100.00,NNE,15,6.0,12.0,58,0.00,,,0.00,694.000000,,2013-07-15 21:23:00,
2013-07-15 18:02:00,89.0,70.0,-100.00,NNW,347,5.0,11.0,54,0.00,,,0.00,550.000000,,2013-07-15 22:02:00,
2013-07-15 18:19:00,89.0,70.0,-100.00,NNW,347,5.0,11.0,54,0.00,,,0.00,550.000000,,2013-07-15 22:19:00,
2013-07-15 18:25:00,89.0,65.0,-100.00,NW,322,4.0,9.0,45,0.00,,,0.00,415.000000,,2013-07-15 22:25:00,
2013-07-15 18:54:00,89.0,65.0,-100.00,NW,322,4.0,9.0,45,0.00,,,0.00,415.000000,,2013-07-15 22:54:00,
2013-07-15 19:06:00,89.0,65.0,-100.00,NW,322,4.0,9.0,45,0.00,,,0.00,415.000000,,2013-07-15 23:06:00,
2013-07-15 19:13:00,89.0,65.0,-100.00,NW,322,4.0,9.0,45,0.00,,,0.00,415.000000,,2013-07-15 23:13:00,
2013-07-15 19:25:00,87.0,62.0,-100.00,North,3,3.0,7.0,43,0.00,,,0.00,258.000000,,2013-07-15 23:25:00,
2013-07-15 19:54:00,87.0,62.0,-100.00,North,3,3.0,7.0,43,0.00,,,0.00,258.000000,,2013-07-15 23:54:00,
2013-07-15 20:03:00,87.0,62.0,-100.00,North,3,3.0,7.0,43,0.00,,,0.00,258.000000,,2013-07-16 00:03:00,
2013-07-15 20:16:00,87.0,62.0,-100.00,North,3,3.0,7.0,43,0.00,,,0.00,258.000000,,2013-07-16 00:16:00,
2013-07-15 20:25:00,82.0,65.0,-100.00,SSW,212,2.0,5.0,57,0.00,,,0.00,98.000000,,2013-07-16 00:25:00,
2013-07-15 20:53:00,82.0,65.0,-100.00,SSW,212,2.0,5.0,57,0.00,,,0.00,98.000000,,2013-07-16 00:53:00,
2013-07-15 21:11:00,82.0,65.0,-100.00,SSW,212,2.0,5.0,57,0.00,,,0.00,98.000000,,2013-07-16 01:11:00,
2013-07-15 21:17:00,82.0,65.0,-100.00,SSW,212,2.0,5.0,57,0.00,,,0.00,98.000000,,2013-07-16 01:17:00,
2013-07-15 22:07:00,74.0,67.0,-100.00,SSW,207,0.0,2.0,79,0.00,,,0.00,4.000000,,2013-07-16 02:07:00,
2013-07-15 22:25:00,71.0,68.0,-100.00,ESE,114,0.0,2.0,91,0.00,,,0.00,0.000000,,2013-07-16 02:25:00,
2013-07-15 22:55:00,71.0,68.0,-100.00,ESE,114,0.0,2.0,91,0.00,,,0.00,0.000000,,2013-07-16 02:55:00,
2013-07-15 23:10:00,71.0,68.0,-100.00,ESE,114,0.0,2.0,91,0.00,,,0.00,0.000000,,2013-07-16 03:10:00,
2013-07-15 23:17:00,71.0,68.0,-100.00,ESE,114,0.0,2.0,91,0.00,,,0.00,0.000000,,2013-07-16 03:17:00,
2013-07-15 23:58:00,70.0,68.0,-100.00,SSW,205,0.0,2.0,94,0.00,,,0.00,0.000000,,2013-07-16 03:58:00,